createdAt,value
2018-07-07T00:01:03.733Z,13.80
2018-07-07T00:03:31.432Z,13.80
2018-07-07T00:06:02.903Z,13.80
2018-07-07T00:08:30.455Z,13.70
2018-07-07T00:10:58.916Z,13.70
2018-07-07T00:13:26.776Z,13.70
2018-07-07T00:15:54.637Z,13.70
2018-07-07T00:18:22.212Z,13.60
2018-07-07T00:20:50.086Z,13.60
2018-07-07T00:23:17.616Z,13.60
2018-07-07T00:25:45.211Z,13.50
2018-07-07T00:28:12.784Z,13.40
2018-07-07T00:30:40.410Z,13.40
2018-07-07T00:33:08.056Z,13.40
2018-07-07T00:35:35.807Z,13.30
2018-07-07T00:38:03.451Z,13.30
2018-07-07T00:40:31.041Z,13.30
2018-07-07T00:42:58.624Z,13.30
2018-07-07T00:45:26.212Z,13.20
2018-07-07T00:47:53.820Z,13.20
2018-07-07T00:50:21.424Z,13.10
2018-07-07T00:52:48.981Z,13.10
2018-07-07T00:55:16.599Z,13.10
2018-07-07T01:00:12.345Z,13.10
2018-07-07T01:02:39.975Z,13.00
2018-07-07T01:05:17.912Z,13.00
2018-07-07T01:07:45.494Z,13.00
2018-07-07T01:10:13.136Z,13.00
2018-07-07T01:15:08.333Z,12.90
2018-07-07T01:17:36.006Z,12.90
2018-07-07T01:20:03.563Z,12.90
2018-07-07T01:22:31.128Z,12.80
2018-07-07T01:24:58.951Z,12.80
2018-07-07T01:27:26.522Z,12.80
2018-07-07T01:29:54.140Z,12.70
2018-07-07T01:32:21.726Z,12.70
2018-07-07T01:34:49.281Z,12.60
2018-07-07T01:37:16.959Z,12.60
2018-07-07T01:42:47.612Z,12.60
2018-07-07T01:45:15.295Z,12.60
2018-07-07T01:47:43.699Z,12.60
2018-07-07T01:50:11.320Z,12.60
2018-07-07T01:52:38.917Z,12.50
2018-07-07T01:55:06.464Z,12.50
2018-07-07T01:57:34.047Z,12.40
2018-07-07T02:00:01.599Z,12.40
2018-07-07T02:02:29.182Z,12.30
2018-07-07T02:04:56.704Z,12.30
2018-07-07T02:07:24.315Z,12.20
2018-07-07T02:09:51.884Z,12.20
2018-07-07T02:12:19.463Z,12.20
2018-07-07T02:14:47.016Z,12.10
2018-07-07T02:17:14.737Z,12.10
2018-07-07T02:19:42.302Z,12.20
2018-07-07T02:22:11.231Z,12.10
2018-07-07T02:24:38.800Z,12.10
2018-07-07T02:27:06.371Z,12.10
2018-07-07T02:29:33.900Z,12.10
2018-07-07T02:32:01.488Z,12.00
2018-07-07T02:34:29.069Z,12.10
2018-07-07T02:36:56.639Z,12.00
2018-07-07T02:39:24.199Z,12.00
2018-07-07T02:41:51.780Z,12.00
2018-07-07T02:44:19.355Z,12.00
2018-07-07T02:46:47.035Z,12.00
2018-07-07T02:49:14.699Z,11.90
2018-07-07T02:51:42.299Z,11.90
2018-07-07T02:54:09.899Z,11.80
2018-07-07T02:56:37.473Z,11.80
2018-07-07T02:59:05.027Z,11.80
2018-07-07T03:01:32.615Z,11.70
2018-07-07T03:04:00.164Z,11.70
2018-07-07T03:06:27.765Z,11.70
2018-07-07T03:08:55.397Z,11.60
2018-07-07T03:11:22.975Z,11.70
2018-07-07T03:13:50.596Z,11.60
2018-07-07T03:16:18.226Z,11.60
2018-07-07T03:18:46.493Z,11.60
2018-07-07T03:21:14.137Z,11.60
2018-07-07T03:23:41.728Z,11.50
2018-07-07T03:26:09.315Z,11.50
2018-07-07T03:28:36.879Z,11.50
2018-07-07T03:31:04.471Z,11.50
2018-07-07T03:33:32.565Z,11.50
2018-07-07T03:36:00.268Z,11.50
2018-07-07T03:38:27.823Z,11.50
2018-07-07T03:40:55.684Z,11.50
2018-07-07T03:43:23.253Z,11.50
2018-07-07T03:45:51.217Z,11.50
2018-07-07T03:48:18.803Z,11.50
2018-07-07T03:53:15.956Z,11.40
2018-07-07T03:55:43.563Z,11.40
2018-07-07T03:58:11.155Z,11.40
2018-07-07T04:00:38.804Z,11.40
2018-07-07T04:03:06.432Z,11.50
2018-07-07T04:05:34.016Z,11.70
2018-07-07T04:08:01.592Z,11.70
2018-07-07T04:10:29.144Z,11.70
2018-07-07T04:12:56.811Z,11.70
2018-07-07T04:15:24.465Z,11.60
2018-07-07T04:17:52.152Z,11.70
2018-07-07T04:20:19.739Z,11.80
2018-07-07T04:22:47.312Z,12.00
2018-07-07T04:25:14.949Z,12.00
2018-07-07T04:27:42.535Z,12.00
2018-07-07T04:30:10.122Z,12.00
2018-07-07T04:32:37.967Z,12.10
2018-07-07T04:35:05.524Z,12.10
2018-07-07T04:37:33.123Z,12.10
2018-07-07T04:40:00.832Z,12.20
2018-07-07T04:42:29.006Z,12.20
2018-07-07T04:44:56.780Z,12.30
2018-07-07T04:47:24.524Z,12.40
2018-07-07T04:49:52.161Z,12.40
2018-07-07T04:52:19.762Z,12.50
2018-07-07T04:57:14.984Z,12.60
2018-07-07T04:59:42.713Z,12.70
2018-07-07T05:02:10.285Z,12.80
2018-07-07T05:04:37.950Z,12.90
2018-07-07T05:07:05.479Z,13.00
2018-07-07T05:09:33.066Z,13.10
2018-07-07T05:12:00.654Z,13.20
2018-07-07T05:14:28.228Z,13.30
2018-07-07T05:16:56.050Z,13.40
2018-07-07T05:19:23.673Z,13.60
2018-07-07T05:21:51.273Z,13.70
2018-07-07T05:24:18.855Z,13.90
2018-07-07T05:26:46.475Z,14.00
2018-07-07T05:29:14.065Z,14.20
2018-07-07T05:31:41.852Z,14.30
2018-07-07T05:34:09.914Z,14.40
2018-07-07T05:36:37.652Z,14.50
2018-07-07T05:39:06.027Z,14.60
2018-07-07T05:41:33.602Z,14.70
2018-07-07T05:44:01.217Z,14.80
2018-07-07T05:46:28.840Z,14.90
2018-07-07T05:48:57.509Z,14.90
2018-07-07T05:51:25.108Z,15.00
2018-07-07T05:53:52.699Z,15.00
2018-07-07T05:56:20.286Z,15.10
2018-07-07T05:58:47.923Z,15.20
2018-07-07T06:01:16.641Z,15.30
2018-07-07T06:03:44.362Z,15.40
2018-07-07T06:06:11.976Z,15.60
2018-07-07T06:08:39.655Z,15.80
2018-07-07T06:11:07.208Z,15.90
2018-07-07T06:13:34.864Z,16.00
2018-07-07T06:16:02.412Z,16.10
2018-07-07T06:18:30.000Z,16.10
2018-07-07T06:20:57.581Z,16.20
2018-07-07T06:23:25.191Z,16.30
2018-07-07T06:25:52.739Z,16.40
2018-07-07T06:28:20.329Z,16.50
2018-07-07T06:30:47.862Z,16.60
2018-07-07T06:33:15.476Z,16.70
2018-07-07T06:35:43.101Z,16.70
2018-07-07T06:38:10.689Z,16.70
2018-07-07T06:40:38.385Z,16.80
2018-07-07T06:43:05.943Z,16.90
2018-07-07T06:45:33.508Z,17.10
2018-07-07T06:48:01.136Z,17.20
2018-07-07T06:50:28.688Z,17.20
2018-07-07T06:52:56.515Z,17.30
2018-07-07T06:55:24.249Z,17.50
2018-07-07T06:57:52.044Z,17.60
2018-07-07T07:00:19.612Z,17.80
2018-07-07T07:02:47.238Z,18.10
2018-07-07T07:05:14.832Z,18.30
2018-07-07T07:07:43.123Z,18.60
2018-07-07T07:10:10.885Z,18.70
2018-07-07T07:12:38.520Z,18.90
2018-07-07T07:15:06.072Z,19.10
2018-07-07T07:17:33.668Z,19.40
2018-07-07T07:20:01.291Z,19.60
2018-07-07T07:22:28.912Z,19.90
2018-07-07T07:24:56.678Z,20.10
2018-07-07T07:27:24.359Z,20.40
2018-07-07T07:29:51.961Z,20.80
2018-07-07T07:32:19.991Z,21.20
2018-07-07T07:34:47.696Z,21.60
2018-07-07T07:39:42.917Z,22.20
2018-07-07T07:42:11.195Z,22.50
2018-07-07T07:44:38.960Z,22.60
2018-07-07T07:47:06.552Z,22.80
2018-07-07T07:52:01.841Z,23.10
2018-07-07T07:54:29.442Z,23.50
2018-07-07T07:56:57.345Z,23.90
2018-07-07T08:01:52.526Z,24.30
2018-07-07T08:04:20.152Z,24.50
2018-07-07T08:06:47.742Z,24.80
2018-07-07T08:09:15.429Z,25.10
2018-07-07T08:11:43.089Z,25.30
2018-07-07T08:14:10.984Z,25.60
2018-07-07T08:16:38.597Z,26.10
2018-07-07T08:19:06.155Z,26.30
2018-07-07T08:24:03.334Z,26.70
2018-07-07T08:26:30.940Z,27.00
2018-07-07T08:28:58.479Z,27.20
2018-07-07T08:31:26.057Z,27.50
2018-07-07T08:33:53.599Z,27.70
2018-07-07T08:36:21.216Z,27.90
2018-07-07T08:38:48.819Z,28.10
2018-07-07T08:41:16.411Z,28.40
2018-07-07T08:43:43.968Z,28.60
2018-07-07T08:46:11.824Z,28.80
2018-07-07T08:48:43.857Z,28.60
2018-07-07T08:51:11.424Z,28.60
2018-07-07T08:53:39.083Z,28.70
2018-07-07T08:56:06.760Z,28.60
2018-07-07T08:58:34.336Z,28.80
2018-07-07T09:01:02.009Z,29.00
2018-07-07T09:03:29.546Z,29.30
2018-07-07T09:05:57.424Z,29.50
2018-07-07T09:08:25.096Z,29.40
2018-07-07T09:10:53.028Z,29.40
2018-07-07T09:13:20.606Z,29.70
2018-07-07T09:15:48.192Z,30.00
2018-07-07T09:18:16.103Z,30.40
2018-07-07T09:23:11.564Z,30.90
2018-07-07T09:25:39.278Z,31.20
2018-07-07T09:28:08.755Z,31.30
2018-07-07T09:30:37.618Z,30.80
2018-07-07T09:33:07.516Z,30.70
2018-07-07T09:35:37.534Z,30.40
2018-07-07T09:38:05.144Z,30.00
2018-07-07T09:40:32.999Z,29.70
2018-07-07T09:43:01.176Z,29.40
2018-07-07T09:45:28.860Z,28.90
2018-07-07T09:47:58.572Z,28.60
2018-07-07T09:50:26.432Z,28.30
2018-07-07T09:52:54.963Z,27.90
2018-07-07T09:55:22.493Z,27.70
2018-07-07T09:57:50.064Z,28.10
2018-07-07T10:00:22.199Z,28.40
2018-07-07T10:02:50.354Z,28.40
2018-07-07T10:05:17.909Z,28.00
2018-07-07T10:07:45.481Z,27.90
2018-07-07T10:10:13.081Z,28.10
2018-07-07T10:12:40.654Z,28.80
2018-07-07T10:15:08.344Z,29.50
2018-07-07T10:17:36.083Z,29.40
2018-07-07T10:20:04.243Z,29.60
2018-07-07T10:22:34.159Z,30.00
2018-07-07T10:25:01.793Z,30.30
2018-07-07T10:27:29.498Z,30.50
2018-07-07T10:29:57.149Z,30.90
2018-07-07T10:32:24.716Z,31.10
2018-07-07T10:34:52.316Z,31.20
2018-07-07T10:37:19.991Z,31.30
2018-07-07T10:39:47.664Z,31.50
2018-07-07T10:42:19.183Z,31.90
2018-07-07T10:44:46.902Z,31.60
2018-07-07T10:47:14.555Z,31.30
2018-07-07T10:49:42.354Z,31.60
2018-07-07T10:52:10.160Z,31.30
2018-07-07T10:54:37.744Z,30.90
2018-07-07T10:57:05.820Z,30.90
2018-07-07T10:59:33.367Z,31.30
2018-07-07T11:02:01.041Z,31.50
2018-07-07T11:04:28.808Z,31.60
2018-07-07T11:06:56.574Z,32.00
2018-07-07T11:09:24.150Z,31.80
2018-07-07T11:11:51.849Z,31.40
2018-07-07T11:14:19.293Z,31.00
2018-07-07T11:16:47.801Z,30.90
2018-07-07T11:19:15.455Z,31.10
2018-07-07T11:21:43.209Z,31.60
2018-07-07T11:24:10.792Z,31.40
2018-07-07T11:26:38.567Z,31.30
2018-07-07T11:29:06.227Z,31.80
2018-07-07T11:31:33.771Z,31.90
2018-07-07T11:34:02.121Z,31.60
2018-07-07T11:36:29.837Z,30.90
2018-07-07T11:38:57.565Z,30.50
2018-07-07T11:41:25.384Z,30.30
2018-07-07T11:43:54.279Z,30.50
2018-07-07T11:46:21.996Z,30.80
2018-07-07T11:48:50.990Z,31.20
2018-07-07T11:51:18.916Z,31.50
2018-07-07T11:53:46.912Z,31.80
2018-07-07T11:56:15.295Z,31.90
2018-07-07T12:01:10.456Z,32.40
2018-07-07T12:03:38.063Z,32.00
2018-07-07T12:06:05.631Z,32.30
2018-07-07T12:08:33.310Z,32.60
2018-07-07T12:11:01.183Z,33.10
2018-07-07T12:13:28.739Z,32.60
2018-07-07T12:15:56.550Z,31.90
2018-07-07T12:18:24.163Z,31.90
2018-07-07T12:20:51.817Z,32.20
2018-07-07T12:23:19.421Z,32.30
2018-07-07T12:25:47.074Z,31.80
2018-07-07T12:28:14.829Z,31.30
2018-07-07T12:30:42.632Z,31.30
2018-07-07T12:33:10.324Z,30.90
2018-07-07T12:35:38.011Z,30.70
2018-07-07T12:38:13.346Z,30.90
2018-07-07T12:40:41.082Z,31.30
2018-07-07T12:43:08.648Z,31.70
2018-07-07T12:45:36.203Z,31.50
2018-07-07T12:48:03.879Z,31.70
2018-07-07T12:50:33.474Z,31.80
2018-07-07T12:53:03.096Z,32.00
2018-07-07T12:55:30.668Z,31.80
2018-07-07T12:57:58.597Z,31.20
2018-07-07T13:00:26.264Z,31.20
2018-07-07T13:02:53.879Z,31.60
2018-07-07T13:05:21.532Z,32.10
2018-07-07T13:07:49.099Z,31.80
2018-07-07T13:10:16.799Z,31.50
2018-07-07T13:12:44.637Z,31.10
2018-07-07T13:15:12.578Z,30.70
2018-07-07T13:17:40.147Z,30.20
2018-07-07T13:22:35.367Z,30.00
2018-07-07T13:25:03.013Z,30.60
2018-07-07T13:27:30.567Z,31.20
2018-07-07T13:29:58.460Z,31.20
2018-07-07T13:32:26.024Z,31.30
2018-07-07T13:37:21.193Z,32.10
2018-07-07T13:39:48.968Z,31.80
2018-07-07T13:42:16.579Z,31.20
2018-07-07T13:44:44.166Z,31.10
2018-07-07T13:47:11.731Z,31.20
2018-07-07T13:49:41.348Z,31.60
2018-07-07T13:52:08.976Z,32.10
2018-07-07T13:54:36.719Z,32.40
2018-07-07T13:57:04.567Z,32.70
2018-07-07T13:59:32.150Z,32.90
2018-07-07T14:01:59.720Z,33.00
2018-07-07T14:04:27.351Z,32.70
2018-07-07T14:06:54.920Z,32.00
2018-07-07T14:09:22.583Z,31.20
2018-07-07T14:11:50.131Z,31.30
2018-07-07T14:14:17.907Z,31.60
2018-07-07T14:16:45.551Z,32.00
2018-07-07T14:19:13.268Z,32.30
2018-07-07T14:21:40.821Z,32.00
2018-07-07T14:24:08.450Z,31.40
2018-07-07T14:26:36.071Z,30.80
2018-07-07T14:29:03.746Z,30.30
2018-07-07T14:31:31.377Z,30.30
2018-07-07T14:33:58.969Z,30.50
2018-07-07T14:36:26.943Z,30.80
2018-07-07T14:38:55.679Z,30.80
2018-07-07T14:41:23.424Z,30.50
2018-07-07T14:43:58.729Z,30.20
2018-07-07T14:46:26.864Z,30.10
2018-07-07T14:48:54.437Z,30.40
2018-07-07T14:51:22.021Z,30.70
2018-07-07T14:53:49.887Z,30.90
2018-07-07T14:56:19.346Z,31.20
2018-07-07T14:58:47.352Z,31.30
2018-07-07T15:01:15.113Z,31.40
2018-07-07T15:03:42.835Z,31.60
2018-07-07T15:08:38.258Z,31.70
2018-07-07T15:11:06.339Z,31.70
2018-07-07T15:13:34.397Z,31.60
2018-07-07T15:16:02.109Z,31.40
2018-07-07T15:18:30.364Z,31.00
2018-07-07T15:20:58.204Z,30.70
2018-07-07T15:25:53.295Z,30.00
2018-07-07T15:28:21.016Z,29.60
2018-07-07T15:30:48.885Z,29.70
2018-07-07T15:35:51.478Z,29.80
2018-07-07T15:38:19.083Z,29.70
2018-07-07T15:40:46.682Z,29.70
2018-07-07T15:43:14.274Z,29.70
2018-07-07T15:45:41.837Z,29.80
2018-07-07T15:48:09.451Z,29.70
2018-07-07T15:53:04.736Z,29.40
2018-07-07T15:55:33.382Z,29.30
2018-07-07T15:58:00.957Z,29.20
2018-07-07T16:00:28.597Z,29.10
2018-07-07T16:02:56.663Z,29.10
2018-07-07T16:05:24.504Z,29.10
2018-07-07T16:07:52.067Z,29.10
2018-07-07T16:10:20.280Z,29.10
2018-07-07T16:12:47.892Z,29.30
2018-07-07T16:15:15.526Z,29.40
2018-07-07T16:17:43.082Z,29.60
2018-07-07T16:20:10.676Z,29.70
2018-07-07T16:22:38.256Z,29.70
2018-07-07T16:25:05.961Z,29.70
2018-07-07T16:27:33.575Z,29.70
2018-07-07T16:30:01.141Z,29.60
2018-07-07T16:32:28.691Z,29.60
2018-07-07T16:34:56.272Z,29.20
2018-07-07T16:37:23.851Z,28.90
2018-07-07T16:39:51.427Z,28.60
2018-07-07T16:42:19.133Z,28.30
2018-07-07T16:44:46.751Z,28.00
2018-07-07T16:47:14.500Z,27.60
2018-07-07T16:49:42.238Z,27.30
2018-07-07T16:52:09.856Z,27.20
2018-07-07T16:54:37.939Z,27.10
2018-07-07T16:57:05.583Z,27.00
2018-07-07T16:59:33.223Z,27.00
2018-07-07T17:02:00.916Z,27.00
2018-07-07T17:04:28.661Z,27.00
2018-07-07T17:06:56.506Z,27.20
2018-07-07T17:09:24.475Z,27.20
2018-07-07T17:11:52.639Z,27.20
2018-07-07T17:14:21.586Z,27.10
2018-07-07T17:16:49.157Z,27.10
2018-07-07T17:19:16.788Z,27.00
2018-07-07T17:21:45.273Z,26.90
2018-07-07T17:24:13.447Z,26.80
2018-07-07T17:26:41.028Z,26.70
2018-07-07T17:29:08.860Z,26.70
2018-07-07T17:31:36.647Z,26.60
2018-07-07T17:34:04.276Z,26.50
2018-07-07T17:36:32.057Z,26.30
2018-07-07T17:39:00.851Z,26.20
2018-07-07T17:41:28.956Z,26.10
2018-07-07T17:43:56.595Z,26.00
2018-07-07T17:46:24.514Z,25.80
2018-07-07T17:51:20.001Z,25.50
2018-07-07T17:53:47.600Z,25.40
2018-07-07T17:56:16.038Z,25.40
2018-07-07T17:58:44.736Z,25.30
2018-07-07T18:01:13.460Z,25.20
2018-07-07T18:03:41.216Z,25.10
2018-07-07T18:06:08.817Z,25.00
2018-07-07T18:08:36.423Z,24.90
2018-07-07T18:11:04.208Z,24.90
2018-07-07T18:13:31.803Z,24.80
2018-07-07T18:15:59.432Z,24.60
2018-07-07T18:18:27.030Z,24.60
2018-07-07T18:20:54.651Z,24.50
2018-07-07T18:23:22.239Z,24.50
2018-07-07T18:25:49.995Z,24.50
2018-07-07T18:28:17.916Z,24.40
2018-07-07T18:30:45.534Z,24.40
2018-07-07T18:33:13.156Z,24.40
2018-07-07T18:35:40.761Z,24.40
2018-07-07T18:38:08.419Z,24.40
2018-07-07T18:40:36.255Z,24.40
2018-07-07T18:43:03.904Z,24.30
2018-07-07T18:45:31.468Z,24.30
2018-07-07T18:47:59.091Z,24.20
2018-07-07T18:50:26.732Z,24.00
2018-07-07T18:52:54.386Z,24.00
2018-07-07T18:55:22.054Z,23.80
2018-07-07T19:00:17.718Z,23.50
2018-07-07T19:05:12.952Z,23.20
2018-07-07T19:07:40.641Z,23.00
2018-07-07T19:12:35.849Z,22.70
2018-07-07T19:15:09.237Z,22.50
2018-07-07T19:17:36.888Z,22.30
2018-07-07T19:20:04.471Z,22.20
2018-07-07T19:22:37.782Z,22.00
2018-07-07T19:25:11.042Z,21.80
2018-07-07T19:27:38.727Z,21.70
2018-07-07T19:30:06.392Z,21.50
2018-07-07T19:32:39.720Z,21.40
2018-07-07T19:35:12.865Z,21.20
2018-07-07T19:37:40.410Z,21.00
2018-07-07T19:40:08.054Z,20.90
2018-07-07T19:42:35.676Z,20.70
2018-07-07T19:45:03.340Z,20.60
2018-07-07T19:47:31.173Z,20.40
2018-07-07T19:49:58.783Z,20.30
2018-07-07T19:52:26.392Z,20.20
2018-07-07T19:54:53.991Z,20.10
2018-07-07T19:57:21.571Z,20.00
2018-07-07T19:59:49.381Z,19.90
2018-07-07T20:02:17.435Z,19.70
2018-07-07T20:04:45.072Z,19.60
2018-07-07T20:07:12.708Z,19.50
2018-07-07T20:09:40.315Z,19.40
2018-07-07T20:17:05.152Z,19.00
2018-07-07T20:20:42.419Z,18.90
2018-07-07T20:23:11.884Z,18.80
2018-07-07T20:25:39.923Z,18.70
2018-07-07T20:28:13.207Z,18.60
2018-07-07T20:30:40.780Z,18.50
2018-07-07T20:33:08.595Z,18.40
2018-07-07T20:35:36.446Z,18.40
2018-07-07T20:38:04.054Z,18.20
2018-07-07T20:40:31.706Z,18.10
2018-07-07T20:42:59.318Z,18.00
2018-07-07T20:45:27.089Z,18.00
2018-07-07T20:47:54.963Z,17.90
2018-07-07T20:50:22.611Z,17.80
2018-07-07T20:52:50.418Z,17.80
2018-07-07T20:55:18.111Z,17.70
2018-07-07T20:57:45.773Z,17.60
2018-07-07T21:00:13.591Z,17.50
2018-07-07T21:02:41.253Z,17.50
2018-07-07T21:05:09.363Z,17.40
2018-07-07T21:07:36.961Z,17.30
2018-07-07T21:10:04.626Z,17.30
2018-07-07T21:12:32.272Z,17.20
2018-07-07T21:15:00.081Z,17.10
2018-07-07T21:17:27.666Z,17.00
2018-07-07T21:19:55.268Z,16.90
2018-07-07T21:24:50.563Z,16.90
2018-07-07T21:27:18.182Z,16.80
2018-07-07T21:29:45.776Z,16.80
2018-07-07T21:32:13.319Z,16.70
2018-07-07T21:34:41.044Z,16.70
2018-07-07T21:37:08.774Z,16.60
2018-07-07T21:39:36.438Z,16.50
2018-07-07T21:42:04.123Z,16.50
2018-07-07T21:44:31.689Z,16.50
2018-07-07T21:46:59.291Z,16.40
2018-07-07T21:49:26.921Z,16.30
2018-07-07T21:51:54.470Z,16.30
2018-07-07T21:54:22.055Z,16.20
2018-07-07T21:56:54.021Z,16.20
2018-07-07T21:59:22.062Z,16.10
2018-07-07T22:01:57.297Z,16.10
2018-07-07T22:04:34.544Z,16.00
2018-07-07T22:07:12.929Z,16.00
2018-07-07T22:09:41.103Z,15.90
2018-07-07T22:12:08.887Z,15.80
2018-07-07T22:14:36.465Z,15.80
2018-07-07T22:17:04.118Z,15.70
2018-07-07T22:19:31.696Z,15.70
2018-07-07T22:22:05.119Z,15.60
2018-07-07T22:24:32.725Z,15.60
2018-07-07T22:29:30.491Z,15.50
2018-07-07T22:34:31.035Z,15.40
2018-07-07T22:39:26.296Z,15.30
2018-07-07T22:41:57.155Z,15.20
2018-07-07T22:44:24.751Z,15.20
2018-07-07T22:46:53.180Z,15.20
2018-07-07T22:49:20.888Z,15.10
2018-07-07T22:51:48.780Z,15.10
2018-07-07T22:56:44.400Z,15.00
2018-07-07T23:01:40.588Z,14.90
2018-07-07T23:04:08.180Z,14.90
2018-07-07T23:06:37.897Z,14.90
2018-07-07T23:09:06.725Z,14.80
2018-07-07T23:11:34.284Z,14.80
2018-07-07T23:14:01.991Z,14.80
2018-07-07T23:16:30.262Z,14.70
2018-07-07T23:18:57.836Z,14.70
2018-07-07T23:21:25.500Z,14.60
2018-07-07T23:23:53.079Z,14.60
2018-07-07T23:26:21.269Z,14.60
2018-07-07T23:28:48.847Z,14.50
2018-07-07T23:31:16.415Z,14.50
2018-07-07T23:33:44.057Z,14.40
2018-07-07T23:36:11.664Z,14.40
2018-07-07T23:38:39.905Z,14.40
2018-07-07T23:41:07.490Z,14.40
2018-07-07T23:43:35.059Z,14.40
2018-07-07T23:46:02.659Z,14.40
2018-07-07T23:48:30.385Z,14.30
2018-07-07T23:50:57.962Z,14.30
2018-07-07T23:53:25.560Z,14.30
2018-07-07T23:55:53.180Z,14.20
2018-07-07T23:58:21.352Z,14.20
